sensor_id;sensor_type;location;lat;lon;timestamp;pressure;altitude;pressure_sealevel;temperature;humidity
63708;BME280;50270;-25.964;28.072;2022-08-14T00:02:10;85022.04;;;18.06;24.00
63708;BME280;50270;-25.964;28.072;2022-08-14T00:04:39;85017.18;;;18.03;24.00
63708;BME280;50270;-25.964;28.072;2022-08-14T00:07:07;85016.28;;;18.02;23.94
63708;BME280;50270;-25.964;28.072;2022-08-14T00:09:36;85013.38;;;17.92;24.02
63708;BME280;50270;-25.964;28.072;2022-08-14T00:12:06;85014.51;;;18.25;23.90
63708;BME280;50270;-25.964;28.072;2022-08-14T00:14:35;85012.71;;;18.20;23.85
63708;BME280;50270;-25.964;28.072;2022-08-14T00:17:05;85015.23;;;17.96;23.98
63708;BME280;50270;-25.964;28.072;2022-08-14T00:19:33;85009.82;;;18.08;23.86
63708;BME280;50270;-25.964;28.072;2022-08-14T00:22:02;85012.97;;;18.47;23.69
63708;BME280;50270;-25.964;28.072;2022-08-14T00:24:30;85019.88;;;17.94;23.91
63708;BME280;50270;-25.964;28.072;2022-08-14T00:27:00;85020.69;;;18.08;23.77
63708;BME280;50270;-25.964;28.072;2022-08-14T00:29:30;85025.98;;;18.07;23.77
63708;BME280;50270;-25.964;28.072;2022-08-14T00:31:58;85021.72;;;18.02;23.53
63708;BME280;50270;-25.964;28.072;2022-08-14T00:34:27;85018.86;;;17.90;23.84
63708;BME280;50270;-25.964;28.072;2022-08-14T00:36:56;85016.01;;;18.10;23.46
63708;BME280;50270;-25.964;28.072;2022-08-14T00:39:25;85017.34;;;17.59;23.89
63708;BME280;50270;-25.964;28.072;2022-08-14T00:41:54;85016.11;;;17.96;23.46
63708;BME280;50270;-25.964;28.072;2022-08-14T00:44:23;85018.81;;;18.18;23.41
63708;BME280;50270;-25.964;28.072;2022-08-14T00:46:52;85017.18;;;17.78;23.51
63708;BME280;50270;-25.964;28.072;2022-08-14T00:49:20;85016.10;;;17.87;23.45
63708;BME280;50270;-25.964;28.072;2022-08-14T00:51:48;85019.12;;;17.92;23.26
63708;BME280;50270;-25.964;28.072;2022-08-14T00:54:16;85022.57;;;17.90;23.65
63708;BME280;50270;-25.964;28.072;2022-08-14T00:56:45;85021.69;;;18.11;23.76
63708;BME280;50270;-25.964;28.072;2022-08-14T00:59:14;85022.70;;;17.51;23.87
63708;BME280;50270;-25.964;28.072;2022-08-14T01:01:44;85022.99;;;17.66;23.64
63708;BME280;50270;-25.964;28.072;2022-08-14T01:04:13;85024.40;;;17.55;23.69
63708;BME280;50270;-25.964;28.072;2022-08-14T01:06:43;85026.84;;;17.62;23.59
63708;BME280;50270;-25.964;28.072;2022-08-14T01:09:11;85025.93;;;18.00;23.68
63708;BME280;50270;-25.964;28.072;2022-08-14T01:11:40;85024.45;;;17.72;23.76
63708;BME280;50270;-25.964;28.072;2022-08-14T01:14:09;85019.89;;;17.94;23.74
63708;BME280;50270;-25.964;28.072;2022-08-14T01:16:38;85014.48;;;17.60;23.49
63708;BME280;50270;-25.964;28.072;2022-08-14T01:19:06;85013.14;;;17.70;23.40
63708;BME280;50270;-25.964;28.072;2022-08-14T01:21:37;85011.78;;;18.02;23.39
63708;BME280;50270;-25.964;28.072;2022-08-14T01:24:07;85017.47;;;17.59;23.44
63708;BME280;50270;-25.964;28.072;2022-08-14T01:26:36;85015.54;;;17.53;23.46
63708;BME280;50270;-25.964;28.072;2022-08-14T01:29:06;85019.40;;;17.43;23.63
63708;BME280;50270;-25.964;28.072;2022-08-14T01:31:37;85017.86;;;17.56;23.89
63708;BME280;50270;-25.964;28.072;2022-08-14T01:34:07;85012.64;;;17.86;23.44
63708;BME280;50270;-25.964;28.072;2022-08-14T01:36:35;85012.47;;;18.00;23.53
63708;BME280;50270;-25.964;28.072;2022-08-14T01:39:07;85015.89;;;17.78;23.57
63708;BME280;50270;-25.964;28.072;2022-08-14T01:41:37;85013.97;;;17.72;23.45
63708;BME280;50270;-25.964;28.072;2022-08-14T01:44:09;85015.98;;;17.40;23.75
63708;BME280;50270;-25.964;28.072;2022-08-14T01:46:40;85014.98;;;17.76;23.48
63708;BME280;50270;-25.964;28.072;2022-08-14T01:49:11;85013.11;;;17.84;23.71
63708;BME280;50270;-25.964;28.072;2022-08-14T01:51:40;85014.97;;;18.02;23.34
63708;BME280;50270;-25.964;28.072;2022-08-14T01:54:12;85022.18;;;17.91;23.52
63708;BME280;50270;-25.964;28.072;2022-08-14T01:56:42;85011.98;;;17.66;23.87
63708;BME280;50270;-25.964;28.072;2022-08-14T01:59:22;85009.73;;;17.78;23.68
63708;BME280;50270;-25.964;28.072;2022-08-14T02:01:54;85007.20;;;17.82;23.41
63708;BME280;50270;-25.964;28.072;2022-08-14T02:04:25;85003.86;;;17.67;23.74
63708;BME280;50270;-25.964;28.072;2022-08-14T02:06:54;84999.71;;;17.67;23.81
63708;BME280;50270;-25.964;28.072;2022-08-14T02:09:23;85001.79;;;17.53;23.85
63708;BME280;50270;-25.964;28.072;2022-08-14T02:11:52;85000.08;;;17.30;23.88
63708;BME280;50270;-25.964;28.072;2022-08-14T02:14:21;85003.22;;;17.54;23.83
63708;BME280;50270;-25.964;28.072;2022-08-14T02:16:50;85002.40;;;17.52;23.75
63708;BME280;50270;-25.964;28.072;2022-08-14T02:19:21;85004.48;;;17.53;23.74
63708;BME280;50270;-25.964;28.072;2022-08-14T02:21:52;85006.96;;;17.54;23.70
63708;BME280;50270;-25.964;28.072;2022-08-14T02:24:23;85014.83;;;17.59;23.60
63708;BME280;50270;-25.964;28.072;2022-08-14T02:26:52;85018.65;;;17.27;23.71
63708;BME280;50270;-25.964;28.072;2022-08-14T02:29:23;85020.73;;;17.18;23.49
63708;BME280;50270;-25.964;28.072;2022-08-14T02:31:54;85024.44;;;17.28;23.88
63708;BME280;50270;-25.964;28.072;2022-08-14T02:34:25;85022.69;;;17.37;23.81
63708;BME280;50270;-25.964;28.072;2022-08-14T02:36:57;85020.18;;;17.28;23.84
63708;BME280;50270;-25.964;28.072;2022-08-14T02:39:26;85025.81;;;17.59;23.46
63708;BME280;50270;-25.964;28.072;2022-08-14T02:41:55;85023.74;;;17.23;23.44
63708;BME280;50270;-25.964;28.072;2022-08-14T02:44:25;85022.85;;;17.39;23.59
63708;BME280;50270;-25.964;28.072;2022-08-14T02:46:54;85024.05;;;17.39;23.57
63708;BME280;50270;-25.964;28.072;2022-08-14T02:49:24;85018.48;;;17.04;23.88
63708;BME280;50270;-25.964;28.072;2022-08-14T02:51:54;85016.63;;;16.91;23.83
63708;BME280;50270;-25.964;28.072;2022-08-14T02:54:24;85023.21;;;17.53;23.32
63708;BME280;50270;-25.964;28.072;2022-08-14T02:56:54;85019.73;;;17.20;23.69
63708;BME280;50270;-25.964;28.072;2022-08-14T02:59:25;85018.08;;;17.14;23.52
63708;BME280;50270;-25.964;28.072;2022-08-14T03:01:54;85017.18;;;17.12;23.85
63708;BME280;50270;-25.964;28.072;2022-08-14T03:04:24;85023.55;;;17.54;23.28
63708;BME280;50270;-25.964;28.072;2022-08-14T03:06:53;85019.86;;;17.47;23.38
63708;BME280;50270;-25.964;28.072;2022-08-14T03:09:22;85016.68;;;17.32;23.47
63708;BME280;50270;-25.964;28.072;2022-08-14T03:11:51;85016.39;;;17.42;23.44
63708;BME280;50270;-25.964;28.072;2022-08-14T03:14:20;85016.12;;;17.35;23.33
63708;BME280;50270;-25.964;28.072;2022-08-14T03:16:49;85020.37;;;17.02;23.67
63708;BME280;50270;-25.964;28.072;2022-08-14T03:19:17;85019.63;;;17.14;23.79
63708;BME280;50270;-25.964;28.072;2022-08-14T03:21:46;85019.03;;;16.94;23.94
63708;BME280;50270;-25.964;28.072;2022-08-14T03:24:14;85019.86;;;16.96;23.90
63708;BME280;50270;-25.964;28.072;2022-08-14T03:26:45;85022.09;;;16.77;23.85
63708;BME280;50270;-25.964;28.072;2022-08-14T03:29:16;85021.06;;;16.85;23.95
63708;BME280;50270;-25.964;28.072;2022-08-14T03:31:46;85019.08;;;16.87;23.75
63708;BME280;50270;-25.964;28.072;2022-08-14T03:34:15;85018.71;;;16.90;23.89
63708;BME280;50270;-25.964;28.072;2022-08-14T03:36:43;85022.82;;;16.99;23.80
63708;BME280;50270;-25.964;28.072;2022-08-14T03:39:12;85016.95;;;16.93;23.79
63708;BME280;50270;-25.964;28.072;2022-08-14T03:41:41;85020.38;;;16.81;23.95
63708;BME280;50270;-25.964;28.072;2022-08-14T03:44:10;85028.02;;;17.12;23.81
63708;BME280;50270;-25.964;28.072;2022-08-14T03:46:38;85031.09;;;16.97;23.76
63708;BME280;50270;-25.964;28.072;2022-08-14T03:49:07;85034.50;;;16.88;23.84
63708;BME280;50270;-25.964;28.072;2022-08-14T03:51:37;85031.92;;;16.78;23.86
63708;BME280;50270;-25.964;28.072;2022-08-14T03:54:06;85031.55;;;16.76;24.00
63708;BME280;50270;-25.964;28.072;2022-08-14T03:56:35;85037.61;;;16.78;23.96
63708;BME280;50270;-25.964;28.072;2022-08-14T03:59:05;85039.27;;;16.86;23.62
63708;BME280;50270;-25.964;28.072;2022-08-14T04:01:34;85037.45;;;16.76;23.97
63708;BME280;50270;-25.964;28.072;2022-08-14T04:04:03;85040.82;;;16.81;23.91
63708;BME280;50270;-25.964;28.072;2022-08-14T04:06:33;85048.48;;;16.69;23.97
63708;BME280;50270;-25.964;28.072;2022-08-14T04:09:03;85056.73;;;16.96;23.66
63708;BME280;50270;-25.964;28.072;2022-08-14T04:11:32;85056.31;;;16.78;23.90
63708;BME280;50270;-25.964;28.072;2022-08-14T04:14:02;85063.48;;;17.10;23.78
63708;BME280;50270;-25.964;28.072;2022-08-14T04:16:31;85066.86;;;16.58;23.96
63708;BME280;50270;-25.964;28.072;2022-08-14T04:19:00;85067.43;;;16.70;23.90
63708;BME280;50270;-25.964;28.072;2022-08-14T04:21:29;85072.49;;;16.75;24.02
63708;BME280;50270;-25.964;28.072;2022-08-14T04:23:59;85074.95;;;16.79;24.00
63708;BME280;50270;-25.964;28.072;2022-08-14T04:26:29;85084.60;;;16.68;23.87
63708;BME280;50270;-25.964;28.072;2022-08-14T04:28:59;85088.12;;;16.82;23.95
63708;BME280;50270;-25.964;28.072;2022-08-14T04:31:27;85090.35;;;16.76;23.69
63708;BME280;50270;-25.964;28.072;2022-08-14T04:33:56;85089.54;;;16.70;23.82
63708;BME280;50270;-25.964;28.072;2022-08-14T04:36:25;85095.72;;;16.60;23.94
63708;BME280;50270;-25.964;28.072;2022-08-14T04:38:53;85098.27;;;16.35;24.19
63708;BME280;50270;-25.964;28.072;2022-08-14T04:41:22;85102.75;;;16.24;24.24
63708;BME280;50270;-25.964;28.072;2022-08-14T04:43:51;85099.86;;;16.49;24.21
63708;BME280;50270;-25.964;28.072;2022-08-14T04:46:21;85099.71;;;16.45;24.25
63708;BME280;50270;-25.964;28.072;2022-08-14T04:48:50;85102.92;;;16.26;24.24
63708;BME280;50270;-25.964;28.072;2022-08-14T04:51:20;85103.14;;;16.33;24.15
63708;BME280;50270;-25.964;28.072;2022-08-14T04:53:49;85103.00;;;16.85;24.11
63708;BME280;50270;-25.964;28.072;2022-08-14T04:56:20;85102.06;;;16.39;24.09
63708;BME280;50270;-25.964;28.072;2022-08-14T04:58:51;85108.19;;;16.58;24.12
63708;BME280;50270;-25.964;28.072;2022-08-14T05:01:19;85111.05;;;16.44;24.28
63708;BME280;50270;-25.964;28.072;2022-08-14T05:03:48;85109.22;;;16.24;24.27
63708;BME280;50270;-25.964;28.072;2022-08-14T05:06:17;85107.21;;;16.52;24.01
63708;BME280;50270;-25.964;28.072;2022-08-14T05:08:45;85109.42;;;16.20;24.49
63708;BME280;50270;-25.964;28.072;2022-08-14T05:11:14;85108.74;;;16.24;24.46
63708;BME280;50270;-25.964;28.072;2022-08-14T05:13:43;85114.90;;;16.40;24.33
63708;BME280;50270;-25.964;28.072;2022-08-14T05:16:12;85122.11;;;16.09;24.44
63708;BME280;50270;-25.964;28.072;2022-08-14T05:18:40;85127.18;;;16.69;24.33
63708;BME280;50270;-25.964;28.072;2022-08-14T05:21:09;85130.33;;;16.60;24.42
63708;BME280;50270;-25.964;28.072;2022-08-14T05:23:39;85140.04;;;16.36;24.42
63708;BME280;50270;-25.964;28.072;2022-08-14T05:26:08;85147.85;;;16.08;24.46
63708;BME280;50270;-25.964;28.072;2022-08-14T05:28:36;85153.76;;;16.41;24.36
63708;BME280;50270;-25.964;28.072;2022-08-14T05:31:06;85163.45;;;16.38;24.40
63708;BME280;50270;-25.964;28.072;2022-08-14T05:33:36;85170.59;;;16.51;24.53
63708;BME280;50270;-25.964;28.072;2022-08-14T05:36:07;85177.28;;;16.37;24.43
63708;BME280;50270;-25.964;28.072;2022-08-14T05:38:38;85174.97;;;16.24;24.58
63708;BME280;50270;-25.964;28.072;2022-08-14T05:41:13;85174.15;;;16.31;24.50
63708;BME280;50270;-25.964;28.072;2022-08-14T05:43:42;85180.29;;;16.37;24.40
63708;BME280;50270;-25.964;28.072;2022-08-14T05:46:13;85194.15;;;16.35;24.43
63708;BME280;50270;-25.964;28.072;2022-08-14T05:48:42;85197.60;;;16.26;24.49
63708;BME280;50270;-25.964;28.072;2022-08-14T05:51:12;85200.97;;;16.01;24.46
63708;BME280;50270;-25.964;28.072;2022-08-14T05:53:41;85198.60;;;16.19;24.31
63708;BME280;50270;-25.964;28.072;2022-08-14T05:56:11;85196.01;;;16.18;24.28
63708;BME280;50270;-25.964;28.072;2022-08-14T05:58:40;85192.81;;;16.67;24.28
63708;BME280;50270;-25.964;28.072;2022-08-14T06:01:10;85185.75;;;16.34;24.31
63708;BME280;50270;-25.964;28.072;2022-08-14T06:03:39;85186.40;;;16.34;24.30
63708;BME280;50270;-25.964;28.072;2022-08-14T06:06:09;85188.06;;;16.30;24.34
63708;BME280;50270;-25.964;28.072;2022-08-14T06:08:38;85184.58;;;16.19;24.45
63708;BME280;50270;-25.964;28.072;2022-08-14T06:11:07;85186.21;;;16.27;24.36
63708;BME280;50270;-25.964;28.072;2022-08-14T06:13:38;85178.66;;;16.11;24.54
63708;BME280;50270;-25.964;28.072;2022-08-14T06:16:07;85183.46;;;16.23;24.43
63708;BME280;50270;-25.964;28.072;2022-08-14T06:18:36;85181.22;;;16.02;24.63
63708;BME280;50270;-25.964;28.072;2022-08-14T06:21:05;85183.83;;;16.18;24.52
63708;BME280;50270;-25.964;28.072;2022-08-14T06:23:34;85185.20;;;16.14;24.31
63708;BME280;50270;-25.964;28.072;2022-08-14T06:26:02;85185.51;;;16.25;24.45
63708;BME280;50270;-25.964;28.072;2022-08-14T06:28:31;85183.97;;;16.36;24.34
63708;BME280;50270;-25.964;28.072;2022-08-14T06:31:00;85190.55;;;16.40;24.32
63708;BME280;50270;-25.964;28.072;2022-08-14T06:33:29;85191.56;;;16.57;24.46
63708;BME280;50270;-25.964;28.072;2022-08-14T06:35:57;85196.91;;;16.24;24.35
63708;BME280;50270;-25.964;28.072;2022-08-14T06:38:26;85196.53;;;16.39;24.38
63708;BME280;50270;-25.964;28.072;2022-08-14T06:40:55;85201.01;;;16.40;24.37
63708;BME280;50270;-25.964;28.072;2022-08-14T06:43:24;85200.38;;;16.32;24.29
63708;BME280;50270;-25.964;28.072;2022-08-14T06:45:53;85198.08;;;16.68;24.37
63708;BME280;50270;-25.964;28.072;2022-08-14T06:48:23;85201.98;;;16.33;24.25
63708;BME280;50270;-25.964;28.072;2022-08-14T06:50:53;85206.17;;;16.60;24.22
63708;BME280;50270;-25.964;28.072;2022-08-14T06:53:23;85208.28;;;16.45;24.41
63708;BME280;50270;-25.964;28.072;2022-08-14T06:55:51;85204.90;;;16.34;24.33
63708;BME280;50270;-25.964;28.072;2022-08-14T06:58:20;85205.31;;;16.38;24.29
63708;BME280;50270;-25.964;28.072;2022-08-14T07:00:48;85203.78;;;16.51;24.21
63708;BME280;50270;-25.964;28.072;2022-08-14T07:03:17;85202.72;;;16.41;24.28
63708;BME280;50270;-25.964;28.072;2022-08-14T07:05:45;85208.12;;;16.45;24.29
63708;BME280;50270;-25.964;28.072;2022-08-14T07:08:17;85205.55;;;16.74;24.24
63708;BME280;50270;-25.964;28.072;2022-08-14T07:10:48;85216.47;;;16.52;24.29
63708;BME280;50270;-25.964;28.072;2022-08-14T07:13:18;85219.46;;;16.78;24.20
63708;BME280;50270;-25.964;28.072;2022-08-14T07:15:49;85215.30;;;16.74;24.11
63708;BME280;50270;-25.964;28.072;2022-08-14T07:18:21;85221.04;;;16.71;24.14
63708;BME280;50270;-25.964;28.072;2022-08-14T07:20:50;85229.32;;;16.53;24.32
63708;BME280;50270;-25.964;28.072;2022-08-14T07:23:20;85225.69;;;16.76;24.15
63708;BME280;50270;-25.964;28.072;2022-08-14T07:25:52;85222.96;;;16.70;24.27
63708;BME280;50270;-25.964;28.072;2022-08-14T07:28:23;85227.62;;;17.06;24.10
63708;BME280;50270;-25.964;28.072;2022-08-14T07:30:54;85232.47;;;16.81;24.20
63708;BME280;50270;-25.964;28.072;2022-08-14T07:33:25;85231.48;;;16.52;24.26
63708;BME280;50270;-25.964;28.072;2022-08-14T07:35:55;85230.08;;;16.73;24.31
63708;BME280;50270;-25.964;28.072;2022-08-14T07:38:25;85228.47;;;16.87;24.22
63708;BME280;50270;-25.964;28.072;2022-08-14T07:40:54;85226.87;;;17.07;24.05
63708;BME280;50270;-25.964;28.072;2022-08-14T07:43:23;85231.42;;;16.96;24.20
63708;BME280;50270;-25.964;28.072;2022-08-14T07:45:51;85228.17;;;17.03;24.18
63708;BME280;50270;-25.964;28.072;2022-08-14T07:48:20;85232.02;;;17.30;24.18
63708;BME280;50270;-25.964;28.072;2022-08-14T07:50:49;85231.11;;;17.16;24.05
63708;BME280;50270;-25.964;28.072;2022-08-14T07:53:18;85233.88;;;17.14;24.17
63708;BME280;50270;-25.964;28.072;2022-08-14T07:55:48;85234.56;;;17.25;24.04
63708;BME280;50270;-25.964;28.072;2022-08-14T07:58:17;85236.95;;;17.37;24.02
63708;BME280;50270;-25.964;28.072;2022-08-14T08:00:47;85243.85;;;17.47;23.83
63708;BME280;50270;-25.964;28.072;2022-08-14T08:03:16;85241.02;;;17.52;23.92
63708;BME280;50270;-25.964;28.072;2022-08-14T08:05:46;85236.07;;;17.65;23.71
63708;BME280;50270;-25.964;28.072;2022-08-14T08:08:16;85235.59;;;17.39;23.85
63708;BME280;50270;-25.964;28.072;2022-08-14T08:10:47;85235.58;;;17.70;23.85
63708;BME280;50270;-25.964;28.072;2022-08-14T08:13:19;85229.41;;;17.50;23.77
63708;BME280;50270;-25.964;28.072;2022-08-14T08:15:49;85230.33;;;17.57;23.77
63708;BME280;50270;-25.964;28.072;2022-08-14T08:18:18;85234.14;;;17.61;23.78
63708;BME280;50270;-25.964;28.072;2022-08-14T08:20:48;85240.75;;;17.69;23.66
63708;BME280;50270;-25.964;28.072;2022-08-14T08:23:19;85244.12;;;17.71;23.46
63708;BME280;50270;-25.964;28.072;2022-08-14T08:25:50;85248.24;;;17.45;24.08
63708;BME280;50270;-25.964;28.072;2022-08-14T08:28:21;85245.47;;;17.68;23.68
63708;BME280;50270;-25.964;28.072;2022-08-14T08:30:53;85241.60;;;17.57;23.85
63708;BME280;50270;-25.964;28.072;2022-08-14T08:33:23;85244.12;;;17.65;23.39
63708;BME280;50270;-25.964;28.072;2022-08-14T08:35:53;85241.77;;;17.94;23.81
63708;BME280;50270;-25.964;28.072;2022-08-14T08:38:26;85233.58;;;17.69;23.78
63708;BME280;50270;-25.964;28.072;2022-08-14T08:40:57;85225.68;;;17.81;23.77
63708;BME280;50270;-25.964;28.072;2022-08-14T08:43:27;85224.26;;;18.22;23.53
63708;BME280;50270;-25.964;28.072;2022-08-14T08:45:58;85228.08;;;17.89;23.52
63708;BME280;50270;-25.964;28.072;2022-08-14T08:48:29;85228.73;;;17.81;23.23
63708;BME280;50270;-25.964;28.072;2022-08-14T08:51:00;85225.85;;;17.88;23.00
63708;BME280;50270;-25.964;28.072;2022-08-14T08:53:31;85216.23;;;17.97;22.89
63708;BME280;50270;-25.964;28.072;2022-08-14T08:56:01;85219.03;;;17.91;23.49
63708;BME280;50270;-25.964;28.072;2022-08-14T08:58:30;85220.65;;;18.09;22.62
63708;BME280;50270;-25.964;28.072;2022-08-14T09:00:58;85221.79;;;18.04;22.78
63708;BME280;50270;-25.964;28.072;2022-08-14T09:03:28;85219.45;;;18.14;22.73
63708;BME280;50270;-25.964;28.072;2022-08-14T09:06:03;85216.87;;;18.10;23.28
63708;BME280;50270;-25.964;28.072;2022-08-14T09:08:33;85218.07;;;18.21;23.20
63708;BME280;50270;-25.964;28.072;2022-08-14T09:11:04;85211.82;;;18.27;23.17
63708;BME280;50270;-25.964;28.072;2022-08-14T09:13:34;85211.49;;;18.37;22.73
63708;BME280;50270;-25.964;28.072;2022-08-14T09:16:03;85211.17;;;18.48;22.81
63708;BME280;50270;-25.964;28.072;2022-08-14T09:18:32;85209.89;;;18.34;23.02
63708;BME280;50270;-25.964;28.072;2022-08-14T09:21:02;85209.47;;;18.52;22.84
63708;BME280;50270;-25.964;28.072;2022-08-14T09:23:32;85206.96;;;18.46;22.97
63708;BME280;50270;-25.964;28.072;2022-08-14T09:26:01;85197.68;;;18.49;23.13
63708;BME280;50270;-25.964;28.072;2022-08-14T09:28:29;85199.34;;;18.61;23.00
63708;BME280;50270;-25.964;28.072;2022-08-14T09:30:58;85186.43;;;18.64;23.04
63708;BME280;50270;-25.964;28.072;2022-08-14T09:33:40;85190.01;;;18.75;22.83
63708;BME280;50270;-25.964;28.072;2022-08-14T09:36:29;85187.71;;;18.72;22.65
63708;BME280;50270;-25.964;28.072;2022-08-14T09:39:12;85190.63;;;18.90;22.10
63708;BME280;50270;-25.964;28.072;2022-08-14T09:42:06;85184.73;;;18.81;22.46
63708;BME280;50270;-25.964;28.072;2022-08-14T09:44:43;85180.34;;;18.86;22.51
63708;BME280;50270;-25.964;28.072;2022-08-14T09:47:15;85172.36;;;18.57;22.74
63708;BME280;50270;-25.964;28.072;2022-08-14T09:49:45;85170.83;;;18.67;22.85
63708;BME280;50270;-25.964;28.072;2022-08-14T09:52:15;85164.04;;;18.73;22.71
63708;BME280;50270;-25.964;28.072;2022-08-14T09:54:47;85163.81;;;19.00;22.37
63708;BME280;50270;-25.964;28.072;2022-08-14T09:57:25;85154.04;;;18.79;22.70
63708;BME280;50270;-25.964;28.072;2022-08-14T09:59:55;85155.94;;;18.93;22.55
63708;BME280;50270;-25.964;28.072;2022-08-14T10:02:28;85152.28;;;18.84;22.60
63708;BME280;50270;-25.964;28.072;2022-08-14T10:05:03;85149.87;;;18.98;22.16
63708;BME280;50270;-25.964;28.072;2022-08-14T10:07:34;85147.65;;;18.65;22.18
63708;BME280;50270;-25.964;28.072;2022-08-14T10:10:04;85138.92;;;18.79;22.28
63708;BME280;50270;-25.964;28.072;2022-08-14T10:12:43;85135.63;;;18.78;22.50
63708;BME280;50270;-25.964;28.072;2022-08-14T10:15:16;85136.63;;;18.91;22.46
63708;BME280;50270;-25.964;28.072;2022-08-14T10:17:46;85133.90;;;18.95;22.35
63708;BME280;50270;-25.964;28.072;2022-08-14T10:20:30;85130.91;;;19.18;22.54
63708;BME280;50270;-25.964;28.072;2022-08-14T10:23:09;85126.84;;;19.32;22.49
63708;BME280;50270;-25.964;28.072;2022-08-14T10:25:41;85124.02;;;19.33;22.15
63708;BME280;50270;-25.964;28.072;2022-08-14T10:28:11;85131.30;;;19.39;22.17
63708;BME280;50270;-25.964;28.072;2022-08-14T10:30:41;85121.63;;;19.39;21.78
63708;BME280;50270;-25.964;28.072;2022-08-14T10:33:22;85120.18;;;19.14;21.93
63708;BME280;50270;-25.964;28.072;2022-08-14T10:35:50;85101.29;;;19.39;21.40
63708;BME280;50270;-25.964;28.072;2022-08-14T10:38:27;85105.56;;;19.52;21.69
63708;BME280;50270;-25.964;28.072;2022-08-14T10:40:56;85097.86;;;19.29;21.49
63708;BME280;50270;-25.964;28.072;2022-08-14T10:43:36;85091.11;;;19.33;21.83
63708;BME280;50270;-25.964;28.072;2022-08-14T10:46:13;85084.05;;;19.61;21.76
63708;BME280;50270;-25.964;28.072;2022-08-14T10:48:55;85089.57;;;19.47;21.43
63708;BME280;50270;-25.964;28.072;2022-08-14T10:51:25;85076.77;;;19.45;21.25
63708;BME280;50270;-25.964;28.072;2022-08-14T10:53:54;85069.99;;;19.73;21.21
63708;BME280;50270;-25.964;28.072;2022-08-14T10:56:30;85075.02;;;19.49;21.36
63708;BME280;50270;-25.964;28.072;2022-08-14T10:59:02;85074.62;;;19.59;21.11
63708;BME280;50270;-25.964;28.072;2022-08-14T11:01:32;85071.94;;;19.49;21.30
63708;BME280;50270;-25.964;28.072;2022-08-14T11:04:02;85073.76;;;19.57;21.40
63708;BME280;50270;-25.964;28.072;2022-08-14T11:06:30;85066.30;;;19.56;20.25
63708;BME280;50270;-25.964;28.072;2022-08-14T11:08:59;85068.57;;;19.42;20.67
63708;BME280;50270;-25.964;28.072;2022-08-14T11:11:42;85069.94;;;19.64;20.68
63708;BME280;50270;-25.964;28.072;2022-08-14T11:14:11;85065.74;;;19.74;20.80
63708;BME280;50270;-25.964;28.072;2022-08-14T11:16:40;85070.95;;;19.80;20.87
63708;BME280;50270;-25.964;28.072;2022-08-14T11:19:10;85062.30;;;19.54;20.80
63708;BME280;50270;-25.964;28.072;2022-08-14T11:21:39;85068.54;;;19.88;20.78
63708;BME280;50270;-25.964;28.072;2022-08-14T11:24:10;85058.09;;;19.89;20.39
63708;BME280;50270;-25.964;28.072;2022-08-14T11:26:43;85059.60;;;19.73;20.46
63708;BME280;50270;-25.964;28.072;2022-08-14T11:29:13;85054.71;;;19.79;20.65
63708;BME280;50270;-25.964;28.072;2022-08-14T11:31:42;85050.32;;;19.78;20.60
63708;BME280;50270;-25.964;28.072;2022-08-14T11:34:11;85047.56;;;19.95;20.43
63708;BME280;50270;-25.964;28.072;2022-08-14T11:36:40;85050.30;;;19.86;20.40
63708;BME280;50270;-25.964;28.072;2022-08-14T11:39:08;85048.83;;;19.64;20.38
63708;BME280;50270;-25.964;28.072;2022-08-14T11:41:44;85052.50;;;20.11;20.26
63708;BME280;50270;-25.964;28.072;2022-08-14T11:44:13;85056.44;;;20.14;19.90
63708;BME280;50270;-25.964;28.072;2022-08-14T11:46:42;85055.08;;;19.88;19.70
63708;BME280;50270;-25.964;28.072;2022-08-14T11:49:10;85059.76;;;20.19;19.87
63708;BME280;50270;-25.964;28.072;2022-08-14T11:51:39;85054.75;;;19.95;19.84
63708;BME280;50270;-25.964;28.072;2022-08-14T11:54:08;85043.06;;;19.85;19.55
63708;BME280;50270;-25.964;28.072;2022-08-14T11:56:39;85045.21;;;19.66;19.48
63708;BME280;50270;-25.964;28.072;2022-08-14T11:59:16;85051.26;;;20.00;19.53
63708;BME280;50270;-25.964;28.072;2022-08-14T12:01:45;85049.08;;;19.99;18.87
63708;BME280;50270;-25.964;28.072;2022-08-14T12:04:16;85044.82;;;19.99;19.19
63708;BME280;50270;-25.964;28.072;2022-08-14T12:06:47;85045.92;;;20.53;18.92
63708;BME280;50270;-25.964;28.072;2022-08-14T12:09:28;85049.00;;;20.08;19.14
63708;BME280;50270;-25.964;28.072;2022-08-14T12:11:58;85052.84;;;20.03;17.77
63708;BME280;50270;-25.964;28.072;2022-08-14T12:14:27;85055.72;;;20.39;18.47
63708;BME280;50270;-25.964;28.072;2022-08-14T12:17:00;85055.48;;;20.11;17.64
63708;BME280;50270;-25.964;28.072;2022-08-14T12:19:30;85050.52;;;19.78;18.86
63708;BME280;50270;-25.964;28.072;2022-08-14T12:21:59;85049.58;;;19.90;18.58
63708;BME280;50270;-25.964;28.072;2022-08-14T12:24:28;85051.83;;;20.12;18.55
63708;BME280;50270;-25.964;28.072;2022-08-14T12:26:57;85053.29;;;20.46;18.60
63708;BME280;50270;-25.964;28.072;2022-08-14T12:29:25;85051.41;;;20.31;18.62
63708;BME280;50270;-25.964;28.072;2022-08-14T12:31:59;85051.40;;;20.07;18.22
63708;BME280;50270;-25.964;28.072;2022-08-14T12:34:32;85050.49;;;20.17;18.11
63708;BME280;50270;-25.964;28.072;2022-08-14T12:37:04;85046.35;;;20.11;18.21
63708;BME280;50270;-25.964;28.072;2022-08-14T12:39:34;85055.80;;;20.20;17.34
63708;BME280;50270;-25.964;28.072;2022-08-14T12:42:03;85056.94;;;20.02;18.45
63708;BME280;50270;-25.964;28.072;2022-08-14T12:44:34;85053.40;;;20.16;18.18
63708;BME280;50270;-25.964;28.072;2022-08-14T12:47:05;85057.20;;;20.12;17.96
63708;BME280;50270;-25.964;28.072;2022-08-14T12:49:34;85058.80;;;20.31;18.12
63708;BME280;50270;-25.964;28.072;2022-08-14T12:52:05;85058.60;;;20.13;17.51
63708;BME280;50270;-25.964;28.072;2022-08-14T12:54:34;85064.00;;;20.34;17.92
63708;BME280;50270;-25.964;28.072;2022-08-14T12:57:05;85055.18;;;20.11;18.39